Moxahala, OH (43761)

11:33 PM EDT on July 06, 2015 (GMT -0400)
Goosecreek Road, Brush Creek Township | | Change Station
CLOSE
Current Station
Personal Weather Station
Location: Roseville, OH
Elevation: 768 ft
Nearby Weather Stations

Elev 768 ft 39.81 °N, 82.00 °W | Updated 6 minutes ago

Clear
Clear
66.2 °F
Feels Like 66.2 °F
N
0.0
Wind Variable Wind from SSE

Today
High -- | Low -- °F
--% Chance of Precip.
Yesterday
High -- | Low -- °F
Precip. -- in
6:07 AM 8:59 PM
Waning Gibbous, 69% visible
Pressure 30.01 in
Visibility 6.0 miles
Clouds Clear
Dew Point 66 °F
Humidity 99%
Rainfall 0.00 in
Snow Depth Not available.
UV 0 out of 12
Pollen 3.50 out of 12
Air Quality Not available.
Flu Activity Not available.
METAR KZZV 070253Z AUTO 19005KT 6SM HZ CLR 22/19 A3003 RMK AO2 SLP161 T02220194 53005

More Conditions Fewer Conditions

Pressure 30.01 in
Visibility 6.0 miles
Clouds Clear
Dew Point 66 °F
Humidity 99%
Rainfall 0.00 in
Snow Depth Not available.
UV 0 out of 12
Pollen 3.50 out of 12
Air Quality Not available.
Flu Activity Not available.
METAR KZZV 070253Z AUTO 19005KT 6SM HZ CLR 22/19 A3003 RMK AO2 SLP161 T02220194 53005

More Conditions Fewer Conditions

10-Day Weather Forecast

×

Almanac

Astronomy

Jul. 06, 2015 Rise Set
Actual Time
Civil Twilight
Nautical Twilight
Astronomical Twilight
Moon
Length of Visible Light
Length of Day
Tomorrow will be .
, % of the Moon is Illuminated

Today's Extremes

State Highs State Lows

Community

WunderPhotos

Upload Photos

1,835,708 photos uploaded!

WunderBlogs® & News

Nearby

Air Quality

  Air Quality AQ Index Pollutant
Not available.

Snow Depth

Station Depth Elevation

Earthquake Activity

City Distance Mag. Time & Date
Minimum magnitude displayed is 2.5.

Coastal Water Temperatures

Place Temperature

Stations

Nearby Weather Stations

Station Location Temp. Windchill Dew Point Humidity Wind Precip. Elev Updated Type